createdAt,value
2018-07-17T00:00:13.933Z,61.97
2018-07-17T00:02:42.254Z,61.72
2018-07-17T00:05:10.816Z,62.11
2018-07-17T00:07:39.132Z,62.07
2018-07-17T00:10:07.975Z,62.49
2018-07-17T00:12:36.471Z,63.20
2018-07-17T00:15:05.062Z,63.04
2018-07-17T00:17:33.958Z,63.45
2018-07-17T00:20:02.275Z,63.80
2018-07-17T00:22:30.595Z,63.07
2018-07-17T00:24:58.935Z,63.34
2018-07-17T00:27:27.277Z,63.59
2018-07-17T00:29:55.591Z,64.29
2018-07-17T00:32:23.912Z,64.59
2018-07-17T00:34:52.245Z,64.91
2018-07-17T00:37:20.589Z,64.41
2018-07-17T00:39:49.045Z,65.35
2018-07-17T00:42:17.370Z,65.10
2018-07-17T00:44:45.736Z,65.08
2018-07-17T00:47:14.056Z,65.71
2018-07-17T00:49:42.401Z,65.96
2018-07-17T00:52:10.756Z,66.42
2018-07-17T00:54:39.069Z,66.15
2018-07-17T00:57:07.481Z,66.32
2018-07-17T00:59:35.860Z,66.28
2018-07-17T01:02:09.627Z,66.64
2018-07-17T01:04:43.298Z,67.05
2018-07-17T01:07:17.148Z,67.02
2018-07-17T01:09:50.841Z,66.97
2018-07-17T01:12:18.282Z,66.79
2018-07-17T01:14:50.745Z,66.78
2018-07-17T01:17:19.129Z,66.95
2018-07-17T01:19:47.547Z,66.45
2018-07-17T01:22:15.891Z,66.56
2018-07-17T01:24:44.272Z,66.45
2018-07-17T01:27:12.680Z,66.79
2018-07-17T01:29:40.992Z,67.52
2018-07-17T01:32:09.303Z,67.11
2018-07-17T01:34:37.668Z,67.28
2018-07-17T01:37:05.989Z,68.15
2018-07-17T01:39:34.329Z,67.54
2018-07-17T01:42:02.647Z,67.58
2018-07-17T01:44:30.967Z,67.64
2018-07-17T01:46:59.271Z,67.96
2018-07-17T01:49:27.653Z,68.21
2018-07-17T01:51:55.980Z,68.31
2018-07-17T01:56:35.852Z,68.12
2018-07-17T01:59:04.224Z,67.94
2018-07-17T02:01:32.625Z,68.08
2018-07-17T02:04:01.000Z,68.74
2018-07-17T02:06:29.366Z,68.42
2018-07-17T02:08:57.792Z,68.45
2018-07-17T02:11:26.158Z,69.12
2018-07-17T02:13:54.488Z,68.83
2018-07-17T02:16:22.902Z,69.38
2018-07-17T02:18:51.326Z,69.31
2018-07-17T02:21:19.636Z,68.99
2018-07-17T02:23:47.952Z,69.10
2018-07-17T02:26:16.286Z,69.32
2018-07-17T02:28:44.593Z,69.46
2018-07-17T02:31:13.000Z,70.02
2018-07-17T02:33:41.285Z,69.55
2018-07-17T02:36:09.664Z,70.24
2018-07-17T02:38:37.972Z,70.17
2018-07-17T02:41:06.597Z,70.27
2018-07-17T02:43:34.916Z,69.90
2018-07-17T02:46:03.325Z,70.20
2018-07-17T02:48:31.645Z,70.66
2018-07-17T02:50:59.995Z,70.93
2018-07-17T02:53:28.337Z,71.08
2018-07-17T02:55:56.658Z,70.93
2018-07-17T02:58:25.019Z,70.18
2018-07-17T03:00:53.354Z,69.94
2018-07-17T03:03:22.292Z,69.28
2018-07-17T03:05:50.671Z,69.54
2018-07-17T03:08:18.983Z,69.74
2018-07-17T03:10:47.290Z,68.93
2018-07-17T03:13:15.616Z,68.59
2018-07-17T03:15:43.977Z,68.54
2018-07-17T03:18:12.310Z,68.77
2018-07-17T03:20:40.646Z,69.63
2018-07-17T03:23:09.141Z,69.58
2018-07-17T03:25:37.483Z,69.04
2018-07-17T03:28:05.805Z,68.97
2018-07-17T03:30:34.122Z,68.96
2018-07-17T03:33:02.532Z,69.19
2018-07-17T03:35:30.940Z,69.86
2018-07-17T03:37:59.237Z,69.46
2018-07-17T03:40:27.587Z,70.00
2018-07-17T03:42:55.945Z,70.58
2018-07-17T03:45:24.248Z,69.93
2018-07-17T03:47:52.595Z,69.59
2018-07-17T03:50:20.887Z,70.39
2018-07-17T03:52:49.253Z,70.08
2018-07-17T03:55:17.657Z,69.79
2018-07-17T03:57:46.017Z,69.33
2018-07-17T04:00:14.380Z,69.20
2018-07-17T04:02:42.729Z,69.78
2018-07-17T04:05:11.073Z,69.28
2018-07-17T04:07:39.438Z,69.99
2018-07-17T04:10:07.805Z,69.11
2018-07-17T04:12:36.156Z,69.07
2018-07-17T04:15:04.493Z,68.60
2018-07-17T04:17:32.875Z,67.86
2018-07-17T04:20:01.213Z,66.83
2018-07-17T04:22:30.541Z,65.81
2018-07-17T04:24:58.860Z,63.70
2018-07-17T04:27:27.371Z,60.91
2018-07-17T04:29:55.827Z,58.17
2018-07-17T04:32:24.137Z,56.00
2018-07-17T04:34:52.451Z,54.75
2018-07-17T04:37:20.751Z,52.85
2018-07-17T04:39:49.097Z,50.52
2018-07-17T04:42:17.444Z,49.16
2018-07-17T04:44:45.775Z,47.98
2018-07-17T04:47:14.145Z,46.23
2018-07-17T04:49:42.504Z,45.74
2018-07-17T04:52:10.959Z,45.22
2018-07-17T04:54:39.313Z,45.11
2018-07-17T04:57:07.835Z,44.78
2018-07-17T04:59:36.162Z,44.59
2018-07-17T05:02:04.547Z,43.36
2018-07-17T05:04:32.871Z,42.92
2018-07-17T05:07:01.222Z,42.72
2018-07-17T05:09:29.547Z,41.83
2018-07-17T05:11:57.862Z,41.84
2018-07-17T05:14:26.270Z,41.19
2018-07-17T05:16:54.774Z,40.56
2018-07-17T05:19:23.246Z,40.60
2018-07-17T05:21:51.574Z,39.36
2018-07-17T05:24:20.006Z,39.17
2018-07-17T05:26:48.292Z,38.81
2018-07-17T05:29:16.969Z,38.32
2018-07-17T05:31:45.334Z,37.84
2018-07-17T05:34:13.702Z,37.72
2018-07-17T05:36:42.098Z,38.11
2018-07-17T05:39:10.462Z,37.79
2018-07-17T05:41:38.993Z,37.74
2018-07-17T05:44:07.325Z,37.21
2018-07-17T05:46:35.731Z,36.08
2018-07-17T05:49:04.180Z,35.98
2018-07-17T05:51:32.549Z,35.99
2018-07-17T05:54:00.899Z,36.60
2018-07-17T05:56:29.281Z,37.56
2018-07-17T05:58:57.726Z,39.55
2018-07-17T06:01:26.084Z,40.02
2018-07-17T06:03:54.416Z,38.82
2018-07-17T06:06:22.775Z,39.27
2018-07-17T06:08:51.125Z,39.14
2018-07-17T06:11:19.492Z,39.46
2018-07-17T06:13:47.848Z,40.83
2018-07-17T06:16:16.258Z,42.10
2018-07-17T06:18:44.604Z,43.04
2018-07-17T06:21:12.941Z,42.64
2018-07-17T06:23:41.292Z,42.76
2018-07-17T06:26:09.658Z,44.10
2018-07-17T06:28:37.992Z,45.20
2018-07-17T06:31:06.364Z,45.26
2018-07-17T06:33:34.827Z,44.94
2018-07-17T06:36:03.249Z,44.69
2018-07-17T06:38:31.589Z,45.25
2018-07-17T06:41:00.299Z,45.46
2018-07-17T06:43:29.617Z,44.76
2018-07-17T06:45:58.020Z,44.10
2018-07-17T06:48:26.391Z,44.65
2018-07-17T06:50:54.842Z,45.89
2018-07-17T06:53:23.129Z,46.38
2018-07-17T06:55:51.437Z,46.08
2018-07-17T06:58:19.972Z,46.33
2018-07-17T07:00:48.284Z,46.76
2018-07-17T07:03:16.615Z,46.29
2018-07-17T07:05:44.957Z,46.18
2018-07-17T07:08:13.329Z,45.78
2018-07-17T07:10:41.675Z,45.79
2018-07-17T07:13:10.075Z,45.93
2018-07-17T07:15:38.432Z,45.09
2018-07-17T07:18:06.753Z,45.88
2018-07-17T07:20:35.112Z,46.43
2018-07-17T07:23:04.084Z,45.92
2018-07-17T07:25:32.394Z,44.93
2018-07-17T07:28:00.728Z,45.05
2018-07-17T07:30:29.108Z,45.55
2018-07-17T07:32:57.461Z,45.67
2018-07-17T07:35:26.081Z,45.38
2018-07-17T07:37:54.428Z,44.76
2018-07-17T07:40:22.776Z,44.78
2018-07-17T07:42:51.252Z,45.26
2018-07-17T07:45:19.524Z,45.50
2018-07-17T07:47:47.875Z,45.08
2018-07-17T07:50:16.280Z,45.32
2018-07-17T07:52:44.679Z,45.85
2018-07-17T07:55:13.023Z,45.01
2018-07-17T07:57:41.372Z,44.68
2018-07-17T08:00:09.710Z,44.93
2018-07-17T08:02:38.106Z,45.67
2018-07-17T08:05:06.767Z,44.34
2018-07-17T08:07:35.124Z,44.96
2018-07-17T08:10:03.508Z,44.57
2018-07-17T08:12:31.814Z,45.06
2018-07-17T08:15:00.155Z,44.59
2018-07-17T08:17:28.442Z,45.72
2018-07-17T08:19:56.802Z,44.95
2018-07-17T08:22:25.134Z,45.09
2018-07-17T08:24:53.480Z,43.61
2018-07-17T08:27:21.781Z,43.88
2018-07-17T08:29:50.152Z,44.22
2018-07-17T08:32:18.457Z,45.02
2018-07-17T08:34:46.775Z,43.99
2018-07-17T08:37:15.104Z,45.22
2018-07-17T08:39:43.420Z,44.71
2018-07-17T08:42:11.815Z,44.40
2018-07-17T08:44:40.170Z,43.71
2018-07-17T08:47:08.522Z,44.34
2018-07-17T08:49:36.965Z,44.51
2018-07-17T08:52:05.835Z,44.89
2018-07-17T08:54:34.217Z,43.54
2018-07-17T08:57:02.536Z,43.26
2018-07-17T08:59:30.880Z,44.01
2018-07-17T09:01:59.214Z,43.12
2018-07-17T09:04:27.514Z,43.73
2018-07-17T09:06:55.873Z,43.30
2018-07-17T09:09:24.224Z,43.25
2018-07-17T09:11:52.518Z,42.32
2018-07-17T09:14:20.887Z,42.82
2018-07-17T09:16:49.220Z,42.49
2018-07-17T09:19:17.594Z,43.10
2018-07-17T09:21:45.910Z,42.39
2018-07-17T09:24:14.352Z,41.57
2018-07-17T09:26:42.671Z,41.24
2018-07-17T09:29:11.022Z,41.10
2018-07-17T09:31:39.378Z,41.05
2018-07-17T09:34:07.710Z,40.29
2018-07-17T09:36:36.130Z,40.08
2018-07-17T09:39:06.324Z,41.17
2018-07-17T09:41:34.665Z,40.50
2018-07-17T09:44:03.040Z,39.89
2018-07-17T09:46:31.379Z,41.21
2018-07-17T09:48:59.744Z,40.73
2018-07-17T09:51:28.057Z,40.56
2018-07-17T09:53:56.415Z,38.41
2018-07-17T09:56:24.765Z,37.96
2018-07-17T09:58:53.082Z,36.35
2018-07-17T10:01:26.533Z,37.68
2018-07-17T10:03:54.866Z,37.60
2018-07-17T10:06:23.248Z,36.51
2018-07-17T10:08:51.543Z,37.23
2018-07-17T10:11:19.852Z,37.40
2018-07-17T10:13:48.187Z,37.49
2018-07-17T10:16:16.661Z,37.38
2018-07-17T10:18:45.058Z,36.90
2018-07-17T10:21:13.374Z,36.53
2018-07-17T10:23:41.725Z,37.87
2018-07-17T10:26:10.097Z,37.10
2018-07-17T10:28:38.440Z,36.43
2018-07-17T10:31:07.019Z,36.32
2018-07-17T10:33:35.321Z,36.08
2018-07-17T10:36:03.806Z,35.95
2018-07-17T10:38:32.136Z,36.80
2018-07-17T10:41:00.596Z,36.18
2018-07-17T10:43:28.906Z,37.04
2018-07-17T10:45:57.233Z,35.89
2018-07-17T10:48:25.552Z,36.03
2018-07-17T10:50:53.865Z,36.05
2018-07-17T10:53:22.343Z,37.58
2018-07-17T10:55:50.708Z,36.55
2018-07-17T10:58:19.079Z,36.97
2018-07-17T11:00:47.409Z,36.55
2018-07-17T11:03:15.775Z,34.99
2018-07-17T11:05:44.357Z,35.68
2018-07-17T11:08:12.710Z,36.90
2018-07-17T11:10:41.097Z,37.82
2018-07-17T11:13:09.422Z,38.62
2018-07-17T11:15:37.772Z,37.55
2018-07-17T11:18:06.127Z,38.68
2018-07-17T11:20:34.472Z,38.96
2018-07-17T11:23:02.773Z,38.64
2018-07-17T11:25:31.145Z,38.68
2018-07-17T11:27:59.506Z,37.67
2018-07-17T11:30:27.832Z,37.39
2018-07-17T11:32:56.223Z,37.99
2018-07-17T11:35:24.545Z,38.40
2018-07-17T11:37:52.908Z,37.96
2018-07-17T11:40:21.231Z,37.93
2018-07-17T11:42:49.550Z,37.26
2018-07-17T11:45:17.867Z,37.52
2018-07-17T11:47:46.218Z,36.44
2018-07-17T11:50:14.583Z,36.31
2018-07-17T11:52:42.908Z,37.37
2018-07-17T11:55:11.217Z,37.48
2018-07-17T11:57:39.575Z,38.33
2018-07-17T12:00:07.900Z,37.54
2018-07-17T12:02:36.210Z,38.69
2018-07-17T12:05:04.740Z,38.22
2018-07-17T12:07:33.136Z,38.50
2018-07-17T12:10:01.467Z,38.58
2018-07-17T12:12:29.826Z,38.46
2018-07-17T12:14:58.225Z,39.17
2018-07-17T12:17:26.529Z,39.21
2018-07-17T12:19:54.938Z,38.29
2018-07-17T12:22:23.307Z,38.47
2018-07-17T12:24:51.710Z,37.65
2018-07-17T12:27:20.097Z,37.28
2018-07-17T12:29:48.461Z,36.10
2018-07-17T12:32:16.813Z,36.01
2018-07-17T12:34:45.174Z,37.16
2018-07-17T12:37:13.536Z,38.57
2018-07-17T12:39:41.871Z,37.86
2018-07-17T12:42:10.199Z,37.27
2018-07-17T12:44:38.557Z,35.64
2018-07-17T12:47:06.930Z,34.45
2018-07-17T12:49:35.276Z,34.74
2018-07-17T12:52:03.606Z,34.54
2018-07-17T12:54:31.967Z,34.35
2018-07-17T12:57:00.286Z,35.09
2018-07-17T12:59:28.598Z,35.45
2018-07-17T13:01:56.956Z,35.32
2018-07-17T13:04:25.257Z,34.28
2018-07-17T13:06:53.592Z,34.66
2018-07-17T13:09:21.964Z,32.97
2018-07-17T13:11:50.255Z,32.66
2018-07-17T13:14:18.595Z,31.34
2018-07-17T13:16:46.951Z,30.19
2018-07-17T13:19:15.298Z,30.08
2018-07-17T13:21:43.612Z,28.80
2018-07-17T13:24:12.037Z,30.49
2018-07-17T13:26:40.401Z,30.68
2018-07-17T13:29:08.705Z,32.39
2018-07-17T13:31:37.077Z,32.67
2018-07-17T13:34:05.499Z,32.59
2018-07-17T13:36:33.812Z,31.80
2018-07-17T13:39:02.138Z,31.33
2018-07-17T13:41:30.518Z,32.02
2018-07-17T13:43:58.840Z,31.15
2018-07-17T13:46:27.192Z,32.16
2018-07-17T13:48:55.545Z,32.44
2018-07-17T13:51:23.941Z,32.64
2018-07-17T13:53:52.296Z,32.26
2018-07-17T13:56:20.709Z,32.45
2018-07-17T13:58:49.014Z,31.96
2018-07-17T14:01:17.483Z,33.32
2018-07-17T14:03:45.806Z,33.26
2018-07-17T14:06:14.157Z,32.41
2018-07-17T14:08:42.572Z,32.28
2018-07-17T14:11:10.948Z,32.18
2018-07-17T14:13:39.576Z,32.06
2018-07-17T14:16:07.905Z,32.45
2018-07-17T14:18:36.509Z,32.38
2018-07-17T14:21:04.961Z,32.18
2018-07-17T14:23:33.355Z,33.10
2018-07-17T14:26:01.733Z,33.90
2018-07-17T14:28:30.109Z,33.72
2018-07-17T14:30:58.476Z,32.88
2018-07-17T14:33:26.827Z,33.37
2018-07-17T14:35:55.316Z,33.77
2018-07-17T14:38:23.599Z,33.94
2018-07-17T14:40:51.897Z,33.81
2018-07-17T14:43:20.297Z,33.43
2018-07-17T14:45:48.677Z,33.29
2018-07-17T14:48:17.017Z,31.75
2018-07-17T14:50:45.327Z,32.29
2018-07-17T14:53:13.690Z,31.56
2018-07-17T14:55:42.058Z,31.80
2018-07-17T14:58:10.409Z,32.01
2018-07-17T15:00:38.759Z,31.44
2018-07-17T15:03:07.133Z,31.70
2018-07-17T15:05:35.481Z,31.93
2018-07-17T15:08:03.797Z,31.53
2018-07-17T15:10:32.153Z,29.37
2018-07-17T15:13:00.581Z,30.01
2018-07-17T15:15:28.946Z,30.37
2018-07-17T15:17:57.273Z,30.22
2018-07-17T15:20:25.646Z,29.88
2018-07-17T15:22:53.989Z,30.86
2018-07-17T15:25:22.336Z,29.22
2018-07-17T15:27:50.698Z,30.30
2018-07-17T15:30:19.031Z,29.95
2018-07-17T15:32:47.353Z,29.98
2018-07-17T15:35:15.771Z,30.63
2018-07-17T15:37:44.057Z,31.05
2018-07-17T15:40:12.377Z,31.03
2018-07-17T15:42:40.836Z,30.88
2018-07-17T15:45:09.326Z,31.79
2018-07-17T15:47:37.710Z,32.29
2018-07-17T15:50:06.069Z,32.60
2018-07-17T15:52:34.508Z,32.25
2018-07-17T15:55:02.873Z,32.13
2018-07-17T15:57:31.216Z,32.73
2018-07-17T15:59:59.636Z,32.18
2018-07-17T16:02:28.010Z,33.05
2018-07-17T16:04:56.519Z,32.63
2018-07-17T16:07:24.827Z,33.99
2018-07-17T16:09:53.490Z,33.68
2018-07-17T16:12:21.848Z,34.23
2018-07-17T16:14:50.706Z,34.86
2018-07-17T16:17:19.060Z,34.75
2018-07-17T16:19:47.396Z,34.10
2018-07-17T16:22:15.708Z,34.42
2018-07-17T16:24:44.156Z,34.43
2018-07-17T16:27:12.744Z,33.71
2018-07-17T16:29:41.070Z,34.69
2018-07-17T16:32:09.907Z,34.53
2018-07-17T16:34:38.216Z,34.38
2018-07-17T16:37:06.513Z,34.02
2018-07-17T16:39:35.153Z,33.68
2018-07-17T16:42:03.503Z,34.37
2018-07-17T16:44:31.802Z,33.71
2018-07-17T16:47:00.152Z,33.90
2018-07-17T16:49:28.497Z,33.64
2018-07-17T16:51:56.912Z,35.08
2018-07-17T16:54:25.346Z,35.83
2018-07-17T16:56:53.705Z,36.15
2018-07-17T16:59:21.973Z,35.79
2018-07-17T17:01:50.319Z,35.60
2018-07-17T17:04:18.655Z,36.65
2018-07-17T17:06:46.980Z,36.13
2018-07-17T17:09:15.308Z,36.76
2018-07-17T17:11:43.593Z,37.01
2018-07-17T17:14:11.935Z,37.16
2018-07-17T17:16:40.809Z,37.71
2018-07-17T17:19:09.161Z,37.56
2018-07-17T17:21:37.860Z,38.38
2018-07-17T17:24:06.456Z,38.66
2018-07-17T17:26:34.690Z,39.38
2018-07-17T17:31:44.252Z,39.84
2018-07-17T17:34:12.553Z,39.83
2018-07-17T17:36:40.948Z,39.46
2018-07-17T17:39:10.564Z,39.92
2018-07-17T17:41:39.173Z,40.59
2018-07-17T17:44:08.437Z,40.42
2018-07-17T17:46:37.180Z,39.98
2018-07-17T17:49:05.817Z,41.50
2018-07-17T17:51:34.168Z,40.43
2018-07-17T17:54:02.597Z,40.52
2018-07-17T17:56:30.943Z,40.31
2018-07-17T17:58:59.298Z,40.43
2018-07-17T18:01:27.653Z,40.18
2018-07-17T18:03:56.060Z,40.14
2018-07-17T18:06:24.372Z,40.55
2018-07-17T18:08:52.870Z,40.28
2018-07-17T18:11:21.217Z,40.94
2018-07-17T18:13:49.740Z,41.01
2018-07-17T18:16:18.189Z,41.05
2018-07-17T18:18:46.555Z,41.62
2018-07-17T18:21:14.907Z,41.53
2018-07-17T18:23:43.287Z,41.97
2018-07-17T18:26:11.674Z,42.08
2018-07-17T18:28:40.104Z,41.66
2018-07-17T18:31:08.668Z,41.46
2018-07-17T18:33:37.032Z,42.25
2018-07-17T18:36:05.448Z,41.68
2018-07-17T18:38:33.972Z,41.95
2018-07-17T18:41:02.443Z,42.09
2018-07-17T18:43:30.811Z,43.18
2018-07-17T18:45:59.155Z,43.46
2018-07-17T18:48:27.500Z,43.78
2018-07-17T18:50:55.870Z,44.11
2018-07-17T18:53:24.203Z,43.79
2018-07-17T18:55:52.489Z,44.10
2018-07-17T18:58:20.855Z,44.32
2018-07-17T19:00:49.213Z,45.38
2018-07-17T19:03:17.536Z,44.54
2018-07-17T19:05:45.998Z,45.76
2018-07-17T19:08:14.358Z,45.30
2018-07-17T19:10:42.700Z,44.93
2018-07-17T19:13:11.039Z,45.70
2018-07-17T19:15:39.464Z,45.71
2018-07-17T19:18:07.999Z,46.04
2018-07-17T19:20:36.733Z,45.33
2018-07-17T19:23:05.111Z,46.31
2018-07-17T19:25:33.551Z,46.41
2018-07-17T19:28:01.874Z,46.09
2018-07-17T19:30:30.284Z,46.91
2018-07-17T19:32:58.724Z,47.22
2018-07-17T19:35:27.136Z,47.96
2018-07-17T19:37:55.401Z,48.56
2018-07-17T19:40:23.771Z,48.43
2018-07-17T19:42:52.183Z,49.15
2018-07-17T19:45:20.524Z,49.47
2018-07-17T19:47:48.843Z,49.43
2018-07-17T19:50:17.276Z,49.91
2018-07-17T19:52:45.653Z,49.62
2018-07-17T19:55:13.985Z,50.27
2018-07-17T19:57:42.470Z,50.03
2018-07-17T20:00:10.900Z,50.00
2018-07-17T20:02:39.240Z,49.84
2018-07-17T20:05:07.600Z,49.70
2018-07-17T20:07:35.958Z,49.98
2018-07-17T20:10:04.794Z,50.36
2018-07-17T20:12:33.153Z,49.24
2018-07-17T20:15:01.475Z,49.73
2018-07-17T20:17:29.846Z,49.95
2018-07-17T20:19:58.237Z,49.49
2018-07-17T20:22:26.574Z,49.53
2018-07-17T20:24:54.915Z,48.62
2018-07-17T20:27:23.262Z,48.92
2018-07-17T20:29:51.578Z,49.85
2018-07-17T20:32:19.981Z,49.88
2018-07-17T20:34:48.278Z,49.79
2018-07-17T20:37:16.657Z,49.88
2018-07-17T20:39:45.081Z,49.86
2018-07-17T20:42:13.423Z,50.01
2018-07-17T20:44:41.766Z,50.24
2018-07-17T20:47:10.086Z,50.40
2018-07-17T20:49:38.411Z,50.49
2018-07-17T20:52:06.987Z,50.84
2018-07-17T20:54:35.657Z,50.03
2018-07-17T20:57:04.017Z,50.34
2018-07-17T20:59:32.365Z,51.02
2018-07-17T21:02:00.704Z,50.43
2018-07-17T21:04:29.022Z,49.85
2018-07-17T21:06:57.363Z,50.69
2018-07-17T21:09:25.717Z,50.64
2018-07-17T21:11:54.033Z,50.74
2018-07-17T21:14:22.463Z,50.49
2018-07-17T21:16:50.799Z,50.85
2018-07-17T21:19:19.107Z,51.17
2018-07-17T21:21:47.468Z,50.71
2018-07-17T21:24:15.811Z,50.50
2018-07-17T21:26:44.250Z,51.04
2018-07-17T21:29:12.612Z,50.92
2018-07-17T21:31:41.044Z,50.59
2018-07-17T21:34:09.411Z,49.81
2018-07-17T21:36:37.751Z,49.62
2018-07-17T21:39:08.743Z,50.67
2018-07-17T21:41:37.070Z,50.32
2018-07-17T21:44:05.406Z,51.22
2018-07-17T21:46:33.773Z,50.74
2018-07-17T21:49:02.120Z,50.74
2018-07-17T21:51:30.397Z,50.19
2018-07-17T21:53:58.767Z,50.48
2018-07-17T21:56:27.181Z,49.99
2018-07-17T21:58:55.461Z,49.97
2018-07-17T22:01:23.814Z,50.53
2018-07-17T22:03:52.160Z,50.11
2018-07-17T22:06:20.560Z,51.01
2018-07-17T22:08:48.911Z,49.99
2018-07-17T22:11:17.221Z,50.96
2018-07-17T22:13:45.545Z,50.62
2018-07-17T22:16:13.900Z,51.19
2018-07-17T22:18:42.249Z,51.90
2018-07-17T22:21:10.614Z,51.94
2018-07-17T22:23:38.958Z,51.75
2018-07-17T22:26:07.330Z,52.43
2018-07-17T22:28:35.672Z,52.57
2018-07-17T22:31:04.061Z,52.10
2018-07-17T22:33:32.399Z,52.15
2018-07-17T22:36:01.758Z,52.90
2018-07-17T22:38:30.087Z,52.83
2018-07-17T22:40:58.483Z,53.02
2018-07-17T22:43:27.006Z,53.49
2018-07-17T22:45:55.360Z,53.24
2018-07-17T22:48:23.770Z,53.80
2018-07-17T22:50:52.140Z,53.58
2018-07-17T22:53:20.677Z,54.23
2018-07-17T22:55:49.028Z,53.78
2018-07-17T22:58:17.332Z,54.66
2018-07-17T23:00:45.798Z,54.81
2018-07-17T23:03:14.158Z,54.74
2018-07-17T23:05:42.483Z,55.33
2018-07-17T23:08:10.902Z,55.30
2018-07-17T23:10:39.265Z,54.78
2018-07-17T23:13:07.590Z,55.23
2018-07-17T23:15:35.985Z,55.37
2018-07-17T23:18:04.295Z,56.35
2018-07-17T23:20:32.712Z,56.00
2018-07-17T23:23:01.247Z,56.90
2018-07-17T23:25:30.952Z,56.59
2018-07-17T23:27:59.914Z,56.85
2018-07-17T23:30:28.566Z,57.37
2018-07-17T23:32:56.931Z,57.60
2018-07-17T23:35:26.007Z,57.39
2018-07-17T23:37:54.573Z,58.27
2018-07-17T23:40:23.357Z,58.58
2018-07-17T23:42:51.723Z,58.06
2018-07-17T23:45:20.070Z,58.77
2018-07-17T23:47:49.108Z,59.63
2018-07-17T23:50:17.602Z,59.25
2018-07-17T23:52:45.952Z,59.50
2018-07-17T23:55:14.275Z,59.55
2018-07-17T23:57:42.637Z,60.21
